sensor_id;sensor_type;location;lat;lon;timestamp;P1;durP1;ratioP1;P2;durP2;ratioP2
15258;SDS011;34462;51.368;12.364;2023-02-28T00:01:43;3.47;;;2.53;;
15258;SDS011;34462;51.368;12.364;2023-02-28T00:04:12;4.00;;;3.20;;
15258;SDS011;34462;51.368;12.364;2023-02-28T00:06:40;4.87;;;3.00;;
15258;SDS011;34462;51.368;12.364;2023-02-28T00:09:08;3.27;;;2.47;;
15258;SDS011;34462;51.368;12.364;2023-02-28T00:11:36;2.90;;;2.53;;
15258;SDS011;34462;51.368;12.364;2023-02-28T00:14:05;4.97;;;2.97;;
15258;SDS011;34462;51.368;12.364;2023-02-28T00:16:34;3.53;;;3.23;;
15258;SDS011;34462;51.368;12.364;2023-02-28T00:19:02;3.53;;;2.93;;
15258;SDS011;34462;51.368;12.364;2023-02-28T00:21:30;3.60;;;3.10;;
15258;SDS011;34462;51.368;12.364;2023-02-28T00:23:59;2.90;;;2.60;;
15258;SDS011;34462;51.368;12.364;2023-02-28T00:26:27;4.77;;;3.10;;
15258;SDS011;34462;51.368;12.364;2023-02-28T00:28:55;4.23;;;3.27;;
15258;SDS011;34462;51.368;12.364;2023-02-28T00:31:23;4.73;;;3.30;;
15258;SDS011;34462;51.368;12.364;2023-02-28T00:33:53;4.13;;;3.20;;
15258;SDS011;34462;51.368;12.364;2023-02-28T00:36:21;3.80;;;2.70;;
15258;SDS011;34462;51.368;12.364;2023-02-28T00:38:49;4.07;;;3.23;;
15258;SDS011;34462;51.368;12.364;2023-02-28T00:41:18;3.20;;;2.90;;
15258;SDS011;34462;51.368;12.364;2023-02-28T00:43:46;3.67;;;2.90;;
15258;SDS011;34462;51.368;12.364;2023-02-28T00:46:14;3.43;;;2.57;;
15258;SDS011;34462;51.368;12.364;2023-02-28T00:48:43;4.30;;;3.03;;
15258;SDS011;34462;51.368;12.364;2023-02-28T00:51:12;4.00;;;2.77;;
15258;SDS011;34462;51.368;12.364;2023-02-28T00:53:40;3.80;;;3.00;;
15258;SDS011;34462;51.368;12.364;2023-02-28T00:56:09;3.87;;;3.07;;
15258;SDS011;34462;51.368;12.364;2023-02-28T00:58:37;3.03;;;2.60;;
15258;SDS011;34462;51.368;12.364;2023-02-28T01:01:05;5.10;;;3.27;;
15258;SDS011;34462;51.368;12.364;2023-02-28T01:03:34;3.53;;;2.87;;
15258;SDS011;34462;51.368;12.364;2023-02-28T01:06:03;3.90;;;2.70;;
15258;SDS011;34462;51.368;12.364;2023-02-28T01:08:33;3.63;;;3.07;;
15258;SDS011;34462;51.368;12.364;2023-02-28T01:11:06;4.07;;;2.97;;
15258;SDS011;34462;51.368;12.364;2023-02-28T01:13:36;5.23;;;2.83;;
15258;SDS011;34462;51.368;12.364;2023-02-28T01:16:05;3.70;;;3.00;;
15258;SDS011;34462;51.368;12.364;2023-02-28T01:18:35;3.23;;;2.70;;
15258;SDS011;34462;51.368;12.364;2023-02-28T01:21:03;5.33;;;3.40;;
15258;SDS011;34462;51.368;12.364;2023-02-28T01:23:34;4.13;;;3.07;;
15258;SDS011;34462;51.368;12.364;2023-02-28T01:26:03;4.40;;;2.90;;
15258;SDS011;34462;51.368;12.364;2023-02-28T01:28:33;3.60;;;3.07;;
15258;SDS011;34462;51.368;12.364;2023-02-28T01:31:01;2.60;;;2.40;;
15258;SDS011;34462;51.368;12.364;2023-02-28T01:33:30;3.60;;;2.87;;
15258;SDS011;34462;51.368;12.364;2023-02-28T01:35:59;3.70;;;2.93;;
15258;SDS011;34462;51.368;12.364;2023-02-28T01:38:29;4.17;;;3.30;;
15258;SDS011;34462;51.368;12.364;2023-02-28T01:40:59;3.50;;;3.20;;
15258;SDS011;34462;51.368;12.364;2023-02-28T01:43:29;3.80;;;2.90;;
15258;SDS011;34462;51.368;12.364;2023-02-28T01:46:19;3.17;;;2.80;;
15258;SDS011;34462;51.368;12.364;2023-02-28T01:48:49;5.33;;;2.80;;
15258;SDS011;34462;51.368;12.364;2023-02-28T01:51:24;3.90;;;2.80;;
15258;SDS011;34462;51.368;12.364;2023-02-28T01:53:59;3.93;;;2.80;;
15258;SDS011;34462;51.368;12.364;2023-02-28T01:56:34;4.00;;;3.03;;
15258;SDS011;34462;51.368;12.364;2023-02-28T01:59:04;4.07;;;3.23;;
15258;SDS011;34462;51.368;12.364;2023-02-28T02:01:32;5.10;;;3.20;;
15258;SDS011;34462;51.368;12.364;2023-02-28T02:04:01;4.87;;;2.67;;
15258;SDS011;34462;51.368;12.364;2023-02-28T02:06:34;3.90;;;3.20;;
15258;SDS011;34462;51.368;12.364;2023-02-28T02:09:07;3.13;;;2.83;;
15258;SDS011;34462;51.368;12.364;2023-02-28T02:11:37;4.47;;;2.80;;
15258;SDS011;34462;51.368;12.364;2023-02-28T02:17:14;3.37;;;2.77;;
15258;SDS011;34462;51.368;12.364;2023-02-28T02:23:33;4.00;;;2.67;;
15258;SDS011;34462;51.368;12.364;2023-02-28T02:26:49;4.00;;;2.97;;
15258;SDS011;34462;51.368;12.364;2023-02-28T02:29:35;4.37;;;2.87;;
15258;SDS011;34462;51.368;12.364;2023-02-28T02:32:36;5.10;;;3.27;;
15258;SDS011;34462;51.368;12.364;2023-02-28T02:35:33;3.37;;;2.90;;
15258;SDS011;34462;51.368;12.364;2023-02-28T02:38:10;4.80;;;3.00;;
15258;SDS011;34462;51.368;12.364;2023-02-28T02:40:56;3.23;;;2.70;;
15258;SDS011;34462;51.368;12.364;2023-02-28T02:43:34;9.30;;;3.23;;
15258;SDS011;34462;51.368;12.364;2023-02-28T02:46:10;3.83;;;3.03;;
15258;SDS011;34462;51.368;12.364;2023-02-28T02:48:43;3.50;;;2.90;;
15258;SDS011;34462;51.368;12.364;2023-02-28T02:51:16;4.03;;;3.07;;
15258;SDS011;34462;51.368;12.364;2023-02-28T02:53:50;4.07;;;3.10;;
15258;SDS011;34462;51.368;12.364;2023-02-28T02:56:25;4.90;;;3.10;;
15258;SDS011;34462;51.368;12.364;2023-02-28T02:58:59;3.23;;;2.90;;
15258;SDS011;34462;51.368;12.364;2023-02-28T03:01:33;4.57;;;3.30;;
15258;SDS011;34462;51.368;12.364;2023-02-28T03:04:06;4.40;;;3.00;;
15258;SDS011;34462;51.368;12.364;2023-02-28T03:06:40;4.60;;;3.10;;
15258;SDS011;34462;51.368;12.364;2023-02-28T03:09:08;3.27;;;2.80;;
15258;SDS011;34462;51.368;12.364;2023-02-28T03:11:37;5.87;;;2.93;;
15258;SDS011;34462;51.368;12.364;2023-02-28T03:14:15;5.27;;;2.93;;
15258;SDS011;34462;51.368;12.364;2023-02-28T03:20:01;4.23;;;3.27;;
15258;SDS011;34462;51.368;12.364;2023-02-28T03:22:46;4.43;;;3.03;;
15258;SDS011;34462;51.368;12.364;2023-02-28T03:25:30;5.30;;;3.40;;
15258;SDS011;34462;51.368;12.364;2023-02-28T03:28:08;4.80;;;3.27;;
15258;SDS011;34462;51.368;12.364;2023-02-28T03:30:47;3.90;;;3.30;;
15258;SDS011;34462;51.368;12.364;2023-02-28T03:33:22;4.40;;;3.37;;
15258;SDS011;34462;51.368;12.364;2023-02-28T03:35:58;4.33;;;3.47;;
15258;SDS011;34462;51.368;12.364;2023-02-28T03:38:36;5.73;;;3.47;;
15258;SDS011;34462;51.368;12.364;2023-02-28T03:41:12;3.67;;;3.23;;
15258;SDS011;34462;51.368;12.364;2023-02-28T03:43:48;5.57;;;3.27;;
15258;SDS011;34462;51.368;12.364;2023-02-28T03:46:23;4.93;;;3.73;;
15258;SDS011;34462;51.368;12.364;2023-02-28T03:49:00;5.37;;;3.47;;
15258;SDS011;34462;51.368;12.364;2023-02-28T03:51:38;4.60;;;3.30;;
15258;SDS011;34462;51.368;12.364;2023-02-28T03:54:12;4.13;;;3.47;;
15258;SDS011;34462;51.368;12.364;2023-02-28T03:56:47;4.73;;;3.33;;
15258;SDS011;34462;51.368;12.364;2023-02-28T03:59:24;4.60;;;3.37;;
15258;SDS011;34462;51.368;12.364;2023-02-28T04:01:57;5.57;;;3.50;;
15258;SDS011;34462;51.368;12.364;2023-02-28T04:04:26;5.83;;;3.47;;
15258;SDS011;34462;51.368;12.364;2023-02-28T04:07:00;5.27;;;4.17;;
15258;SDS011;34462;51.368;12.364;2023-02-28T04:09:32;4.73;;;3.57;;
15258;SDS011;34462;51.368;12.364;2023-02-28T04:12:00;4.23;;;3.37;;
15258;SDS011;34462;51.368;12.364;2023-02-28T04:14:28;4.53;;;3.40;;
15258;SDS011;34462;51.368;12.364;2023-02-28T04:16:56;4.07;;;3.40;;
15258;SDS011;34462;51.368;12.364;2023-02-28T04:19:24;4.57;;;3.40;;
15258;SDS011;34462;51.368;12.364;2023-02-28T04:21:53;3.87;;;3.47;;
15258;SDS011;34462;51.368;12.364;2023-02-28T04:24:22;4.37;;;3.33;;
15258;SDS011;34462;51.368;12.364;2023-02-28T04:26:56;5.53;;;4.13;;
15258;SDS011;34462;51.368;12.364;2023-02-28T04:29:26;4.47;;;3.80;;
15258;SDS011;34462;51.368;12.364;2023-02-28T04:31:56;7.53;;;3.40;;
15258;SDS011;34462;51.368;12.364;2023-02-28T04:34:26;5.10;;;3.83;;
15258;SDS011;34462;51.368;12.364;2023-02-28T04:36:57;4.00;;;3.23;;
15258;SDS011;34462;51.368;12.364;2023-02-28T04:39:41;5.97;;;3.27;;
15258;SDS011;34462;51.368;12.364;2023-02-28T04:42:12;5.33;;;3.70;;
15258;SDS011;34462;51.368;12.364;2023-02-28T04:44:40;4.33;;;3.23;;
15258;SDS011;34462;51.368;12.364;2023-02-28T04:47:08;4.40;;;3.10;;
15258;SDS011;34462;51.368;12.364;2023-02-28T04:49:37;5.57;;;3.43;;
15258;SDS011;34462;51.368;12.364;2023-02-28T04:52:05;6.13;;;3.60;;
15258;SDS011;34462;51.368;12.364;2023-02-28T04:54:36;5.07;;;3.63;;
15258;SDS011;34462;51.368;12.364;2023-02-28T04:57:05;4.47;;;3.40;;
15258;SDS011;34462;51.368;12.364;2023-02-28T04:59:34;4.90;;;3.40;;
15258;SDS011;34462;51.368;12.364;2023-02-28T05:02:03;5.60;;;4.23;;
15258;SDS011;34462;51.368;12.364;2023-02-28T05:04:33;6.83;;;3.77;;
15258;SDS011;34462;51.368;12.364;2023-02-28T05:07:01;4.80;;;3.40;;
15258;SDS011;34462;51.368;12.364;2023-02-28T05:09:30;5.07;;;3.90;;
15258;SDS011;34462;51.368;12.364;2023-02-28T05:11:59;5.30;;;4.07;;
15258;SDS011;34462;51.368;12.364;2023-02-28T05:14:27;4.77;;;4.00;;
15258;SDS011;34462;51.368;12.364;2023-02-28T05:16:56;5.77;;;4.43;;
15258;SDS011;34462;51.368;12.364;2023-02-28T05:19:25;7.47;;;4.07;;
15258;SDS011;34462;51.368;12.364;2023-02-28T05:21:53;6.20;;;4.13;;
15258;SDS011;34462;51.368;12.364;2023-02-28T05:24:22;7.23;;;4.40;;
15258;SDS011;34462;51.368;12.364;2023-02-28T05:26:51;6.03;;;4.17;;
15258;SDS011;34462;51.368;12.364;2023-02-28T05:29:21;5.77;;;4.60;;
15258;SDS011;34462;51.368;12.364;2023-02-28T05:31:50;5.60;;;3.57;;
15258;SDS011;34462;51.368;12.364;2023-02-28T05:34:19;5.13;;;4.07;;
15258;SDS011;34462;51.368;12.364;2023-02-28T05:36:47;8.10;;;4.73;;
15258;SDS011;34462;51.368;12.364;2023-02-28T05:39:16;7.37;;;4.53;;
15258;SDS011;34462;51.368;12.364;2023-02-28T05:41:44;5.50;;;4.47;;
15258;SDS011;34462;51.368;12.364;2023-02-28T05:44:12;5.87;;;4.40;;
15258;SDS011;34462;51.368;12.364;2023-02-28T05:46:40;5.00;;;4.20;;
15258;SDS011;34462;51.368;12.364;2023-02-28T05:49:09;5.93;;;4.47;;
15258;SDS011;34462;51.368;12.364;2023-02-28T05:51:38;6.23;;;4.60;;
15258;SDS011;34462;51.368;12.364;2023-02-28T05:54:07;6.70;;;4.50;;
15258;SDS011;34462;51.368;12.364;2023-02-28T05:56:38;6.33;;;4.70;;
15258;SDS011;34462;51.368;12.364;2023-02-28T05:59:06;5.70;;;4.40;;
15258;SDS011;34462;51.368;12.364;2023-02-28T06:01:35;6.33;;;4.10;;
15258;SDS011;34462;51.368;12.364;2023-02-28T06:04:06;5.77;;;4.73;;
15258;SDS011;34462;51.368;12.364;2023-02-28T06:06:55;5.43;;;4.10;;
15258;SDS011;34462;51.368;12.364;2023-02-28T06:09:24;5.97;;;4.47;;
15258;SDS011;34462;51.368;12.364;2023-02-28T06:11:52;7.13;;;4.67;;
15258;SDS011;34462;51.368;12.364;2023-02-28T06:14:20;6.00;;;4.63;;
15258;SDS011;34462;51.368;12.364;2023-02-28T06:16:48;6.77;;;4.50;;
15258;SDS011;34462;51.368;12.364;2023-02-28T06:19:17;6.10;;;4.53;;
15258;SDS011;34462;51.368;12.364;2023-02-28T06:21:49;6.53;;;4.30;;
15258;SDS011;34462;51.368;12.364;2023-02-28T06:24:20;7.43;;;4.60;;
15258;SDS011;34462;51.368;12.364;2023-02-28T06:26:50;6.87;;;4.60;;
15258;SDS011;34462;51.368;12.364;2023-02-28T06:29:19;5.80;;;4.30;;
15258;SDS011;34462;51.368;12.364;2023-02-28T06:31:47;7.33;;;4.50;;
15258;SDS011;34462;51.368;12.364;2023-02-28T06:34:16;5.33;;;4.57;;
15258;SDS011;34462;51.368;12.364;2023-02-28T06:36:44;6.13;;;4.23;;
15258;SDS011;34462;51.368;12.364;2023-02-28T06:39:12;5.57;;;4.67;;
15258;SDS011;34462;51.368;12.364;2023-02-28T06:41:42;5.70;;;4.63;;
15258;SDS011;34462;51.368;12.364;2023-02-28T06:44:21;5.70;;;4.50;;
15258;SDS011;34462;51.368;12.364;2023-02-28T06:46:50;5.80;;;4.60;;
15258;SDS011;34462;51.368;12.364;2023-02-28T06:49:19;8.67;;;5.40;;
15258;SDS011;34462;51.368;12.364;2023-02-28T06:51:47;7.63;;;4.50;;
15258;SDS011;34462;51.368;12.364;2023-02-28T06:54:16;6.23;;;4.67;;
15258;SDS011;34462;51.368;12.364;2023-02-28T06:56:45;8.80;;;4.97;;
15258;SDS011;34462;51.368;12.364;2023-02-28T06:59:13;5.80;;;4.87;;
15258;SDS011;34462;51.368;12.364;2023-02-28T07:01:42;5.73;;;4.43;;
15258;SDS011;34462;51.368;12.364;2023-02-28T07:04:10;7.50;;;4.90;;
15258;SDS011;34462;51.368;12.364;2023-02-28T07:06:39;6.00;;;5.00;;
15258;SDS011;34462;51.368;12.364;2023-02-28T07:09:07;6.03;;;4.77;;
15258;SDS011;34462;51.368;12.364;2023-02-28T07:11:36;5.77;;;4.60;;
15258;SDS011;34462;51.368;12.364;2023-02-28T07:14:06;6.80;;;4.93;;
15258;SDS011;34462;51.368;12.364;2023-02-28T07:16:35;6.40;;;4.73;;
15258;SDS011;34462;51.368;12.364;2023-02-28T07:19:03;7.47;;;4.70;;
15258;SDS011;34462;51.368;12.364;2023-02-28T07:21:32;7.53;;;4.80;;
15258;SDS011;34462;51.368;12.364;2023-02-28T07:24:00;7.50;;;4.60;;
15258;SDS011;34462;51.368;12.364;2023-02-28T07:26:28;6.43;;;4.30;;
15258;SDS011;34462;51.368;12.364;2023-02-28T07:28:56;7.50;;;4.83;;
15258;SDS011;34462;51.368;12.364;2023-02-28T07:31:26;8.53;;;4.60;;
15258;SDS011;34462;51.368;12.364;2023-02-28T07:33:55;6.97;;;4.20;;
15258;SDS011;34462;51.368;12.364;2023-02-28T07:36:23;6.93;;;4.77;;
15258;SDS011;34462;51.368;12.364;2023-02-28T07:38:51;6.17;;;4.50;;
15258;SDS011;34462;51.368;12.364;2023-02-28T07:41:20;6.20;;;4.60;;
15258;SDS011;34462;51.368;12.364;2023-02-28T07:43:52;7.23;;;4.40;;
15258;SDS011;34462;51.368;12.364;2023-02-28T07:46:21;6.20;;;4.60;;
15258;SDS011;34462;51.368;12.364;2023-02-28T07:48:51;6.47;;;4.50;;
15258;SDS011;34462;51.368;12.364;2023-02-28T07:51:21;6.67;;;4.77;;
15258;SDS011;34462;51.368;12.364;2023-02-28T07:53:50;7.83;;;4.60;;
15258;SDS011;34462;51.368;12.364;2023-02-28T07:56:18;6.73;;;4.47;;
15258;SDS011;34462;51.368;12.364;2023-02-28T07:58:46;11.47;;;4.60;;
15258;SDS011;34462;51.368;12.364;2023-02-28T08:01:15;6.43;;;4.20;;
15258;SDS011;34462;51.368;12.364;2023-02-28T08:03:43;5.60;;;4.10;;
15258;SDS011;34462;51.368;12.364;2023-02-28T08:06:16;7.57;;;4.13;;
15258;SDS011;34462;51.368;12.364;2023-02-28T08:08:47;7.37;;;4.17;;
15258;SDS011;34462;51.368;12.364;2023-02-28T08:11:16;7.37;;;4.37;;
15258;SDS011;34462;51.368;12.364;2023-02-28T08:13:45;4.67;;;3.67;;
15258;SDS011;34462;51.368;12.364;2023-02-28T08:16:13;5.17;;;3.90;;
15258;SDS011;34462;51.368;12.364;2023-02-28T08:18:47;6.27;;;4.00;;
15258;SDS011;34462;51.368;12.364;2023-02-28T08:21:18;5.63;;;4.10;;
15258;SDS011;34462;51.368;12.364;2023-02-28T08:23:48;6.37;;;4.30;;
15258;SDS011;34462;51.368;12.364;2023-02-28T08:26:18;9.57;;;4.77;;
15258;SDS011;34462;51.368;12.364;2023-02-28T08:28:47;4.73;;;4.10;;
15258;SDS011;34462;51.368;12.364;2023-02-28T08:31:16;5.57;;;4.40;;
15258;SDS011;34462;51.368;12.364;2023-02-28T08:33:45;5.33;;;3.70;;
15258;SDS011;34462;51.368;12.364;2023-02-28T08:36:14;6.53;;;4.30;;
15258;SDS011;34462;51.368;12.364;2023-02-28T08:38:44;4.23;;;3.80;;
15258;SDS011;34462;51.368;12.364;2023-02-28T08:41:12;5.27;;;3.70;;
15258;SDS011;34462;51.368;12.364;2023-02-28T08:43:41;6.33;;;3.80;;
15258;SDS011;34462;51.368;12.364;2023-02-28T08:46:10;4.67;;;3.77;;
15258;SDS011;34462;51.368;12.364;2023-02-28T08:48:40;6.53;;;3.77;;
15258;SDS011;34462;51.368;12.364;2023-02-28T08:51:10;5.90;;;3.77;;
15258;SDS011;34462;51.368;12.364;2023-02-28T08:53:42;5.27;;;3.60;;
15258;SDS011;34462;51.368;12.364;2023-02-28T08:56:13;4.10;;;3.40;;
15258;SDS011;34462;51.368;12.364;2023-02-28T08:58:43;4.80;;;3.60;;
15258;SDS011;34462;51.368;12.364;2023-02-28T09:01:14;6.70;;;3.57;;
15258;SDS011;34462;51.368;12.364;2023-02-28T09:03:45;5.67;;;3.90;;
15258;SDS011;34462;51.368;12.364;2023-02-28T09:06:16;4.20;;;3.13;;
15258;SDS011;34462;51.368;12.364;2023-02-28T09:08:47;7.27;;;4.00;;
15258;SDS011;34462;51.368;12.364;2023-02-28T09:11:16;4.17;;;3.30;;
15258;SDS011;34462;51.368;12.364;2023-02-28T09:13:45;4.73;;;3.53;;
15258;SDS011;34462;51.368;12.364;2023-02-28T09:16:14;3.90;;;3.03;;
15258;SDS011;34462;51.368;12.364;2023-02-28T09:18:43;6.57;;;3.90;;
15258;SDS011;34462;51.368;12.364;2023-02-28T09:21:13;5.17;;;3.50;;
15258;SDS011;34462;51.368;12.364;2023-02-28T09:23:44;5.10;;;3.60;;
15258;SDS011;34462;51.368;12.364;2023-02-28T09:26:16;4.27;;;3.60;;
15258;SDS011;34462;51.368;12.364;2023-02-28T09:28:47;4.20;;;3.37;;
15258;SDS011;34462;51.368;12.364;2023-02-28T09:31:17;6.33;;;3.83;;
15258;SDS011;34462;51.368;12.364;2023-02-28T09:33:48;4.93;;;3.40;;
15258;SDS011;34462;51.368;12.364;2023-02-28T09:36:17;5.37;;;4.00;;
15258;SDS011;34462;51.368;12.364;2023-02-28T09:38:49;5.50;;;3.60;;
15258;SDS011;34462;51.368;12.364;2023-02-28T09:41:20;7.33;;;3.77;;
15258;SDS011;34462;51.368;12.364;2023-02-28T09:43:52;5.30;;;3.50;;
15258;SDS011;34462;51.368;12.364;2023-02-28T09:46:27;4.50;;;3.47;;
15258;SDS011;34462;51.368;12.364;2023-02-28T09:49:02;5.77;;;3.80;;
15258;SDS011;34462;51.368;12.364;2023-02-28T09:51:37;5.53;;;3.37;;
15258;SDS011;34462;51.368;12.364;2023-02-28T09:54:19;4.80;;;3.77;;
15258;SDS011;34462;51.368;12.364;2023-02-28T09:56:50;5.37;;;4.33;;
15258;SDS011;34462;51.368;12.364;2023-02-28T09:59:31;5.83;;;3.60;;
15258;SDS011;34462;51.368;12.364;2023-02-28T10:02:15;4.40;;;3.20;;
15258;SDS011;34462;51.368;12.364;2023-02-28T10:05:08;4.07;;;3.17;;
15258;SDS011;34462;51.368;12.364;2023-02-28T10:07:46;6.10;;;3.83;;
15258;SDS011;34462;51.368;12.364;2023-02-28T10:10:35;4.30;;;3.50;;
15258;SDS011;34462;51.368;12.364;2023-02-28T10:13:13;5.50;;;3.90;;
15258;SDS011;34462;51.368;12.364;2023-02-28T10:15:52;6.23;;;4.13;;
15258;SDS011;34462;51.368;12.364;2023-02-28T10:18:26;4.60;;;3.93;;
15258;SDS011;34462;51.368;12.364;2023-02-28T10:21:02;4.67;;;3.67;;
15258;SDS011;34462;51.368;12.364;2023-02-28T10:23:32;5.10;;;3.67;;
15258;SDS011;34462;51.368;12.364;2023-02-28T10:26:08;4.73;;;3.80;;
15258;SDS011;34462;51.368;12.364;2023-02-28T10:28:42;6.00;;;3.60;;
15258;SDS011;34462;51.368;12.364;2023-02-28T10:31:11;4.37;;;3.63;;
15258;SDS011;34462;51.368;12.364;2023-02-28T10:33:46;4.57;;;3.90;;
15258;SDS011;34462;51.368;12.364;2023-02-28T10:36:16;4.73;;;3.57;;
15258;SDS011;34462;51.368;12.364;2023-02-28T10:38:47;4.43;;;3.77;;
15258;SDS011;34462;51.368;12.364;2023-02-28T10:41:26;5.00;;;3.47;;
15258;SDS011;34462;51.368;12.364;2023-02-28T10:44:14;6.53;;;3.90;;
15258;SDS011;34462;51.368;12.364;2023-02-28T10:46:47;4.83;;;4.00;;
15258;SDS011;34462;51.368;12.364;2023-02-28T10:49:20;4.17;;;3.73;;
15258;SDS011;34462;51.368;12.364;2023-02-28T10:51:51;5.03;;;3.83;;
15258;SDS011;34462;51.368;12.364;2023-02-28T10:54:24;4.60;;;3.90;;
15258;SDS011;34462;51.368;12.364;2023-02-28T10:57:17;5.20;;;3.80;;
15258;SDS011;34462;51.368;12.364;2023-02-28T10:59:50;5.43;;;3.90;;
15258;SDS011;34462;51.368;12.364;2023-02-28T11:02:31;4.97;;;3.80;;
15258;SDS011;34462;51.368;12.364;2023-02-28T11:07:51;6.37;;;4.30;;
15258;SDS011;34462;51.368;12.364;2023-02-28T11:10:24;5.73;;;4.60;;
15258;SDS011;34462;51.368;12.364;2023-02-28T11:13:00;6.13;;;4.80;;
15258;SDS011;34462;51.368;12.364;2023-02-28T11:15:30;5.47;;;4.23;;
15258;SDS011;34462;51.368;12.364;2023-02-28T11:18:01;4.53;;;3.73;;
15258;SDS011;34462;51.368;12.364;2023-02-28T11:20:50;5.73;;;4.23;;
15258;SDS011;34462;51.368;12.364;2023-02-28T11:23:21;4.93;;;3.80;;
15258;SDS011;34462;51.368;12.364;2023-02-28T11:25:54;6.03;;;4.13;;
15258;SDS011;34462;51.368;12.364;2023-02-28T11:28:29;4.83;;;4.13;;
15258;SDS011;34462;51.368;12.364;2023-02-28T11:31:00;5.03;;;4.20;;
15258;SDS011;34462;51.368;12.364;2023-02-28T11:33:40;5.93;;;4.23;;
15258;SDS011;34462;51.368;12.364;2023-02-28T11:36:12;4.70;;;3.97;;
15258;SDS011;34462;51.368;12.364;2023-02-28T11:38:46;4.70;;;4.17;;
15258;SDS011;34462;51.368;12.364;2023-02-28T11:41:19;5.03;;;4.53;;
15258;SDS011;34462;51.368;12.364;2023-02-28T11:44:13;5.93;;;4.80;;
15258;SDS011;34462;51.368;12.364;2023-02-28T11:46:56;8.97;;;4.77;;
15258;SDS011;34462;51.368;12.364;2023-02-28T11:49:33;6.80;;;4.73;;
15258;SDS011;34462;51.368;12.364;2023-02-28T11:52:14;8.30;;;5.47;;
15258;SDS011;34462;51.368;12.364;2023-02-28T11:54:58;6.40;;;4.67;;
15258;SDS011;34462;51.368;12.364;2023-02-28T11:57:47;6.67;;;5.20;;
15258;SDS011;34462;51.368;12.364;2023-02-28T12:01:00;5.73;;;5.10;;
15258;SDS011;34462;51.368;12.364;2023-02-28T12:03:46;4.90;;;4.40;;
15258;SDS011;34462;51.368;12.364;2023-02-28T12:06:28;6.23;;;4.77;;
15258;SDS011;34462;51.368;12.364;2023-02-28T12:09:11;6.87;;;5.17;;
15258;SDS011;34462;51.368;12.364;2023-02-28T12:12:02;6.60;;;5.13;;
15258;SDS011;34462;51.368;12.364;2023-02-28T12:14:55;7.17;;;5.47;;
15258;SDS011;34462;51.368;12.364;2023-02-28T12:18:08;6.40;;;5.67;;
15258;SDS011;34462;51.368;12.364;2023-02-28T12:21:01;7.40;;;5.67;;
15258;SDS011;34462;51.368;12.364;2023-02-28T12:23:48;6.50;;;5.67;;
15258;SDS011;34462;51.368;12.364;2023-02-28T12:26:42;7.10;;;5.73;;
15258;SDS011;34462;51.368;12.364;2023-02-28T12:29:14;7.93;;;5.50;;
15258;SDS011;34462;51.368;12.364;2023-02-28T12:31:49;6.40;;;5.43;;
15258;SDS011;34462;51.368;12.364;2023-02-28T12:34:25;7.30;;;5.53;;
15258;SDS011;34462;51.368;12.364;2023-02-28T12:37:01;6.90;;;5.63;;
15258;SDS011;34462;51.368;12.364;2023-02-28T12:39:37;8.03;;;6.50;;
15258;SDS011;34462;51.368;12.364;2023-02-28T12:42:17;6.33;;;5.53;;
15258;SDS011;34462;51.368;12.364;2023-02-28T12:44:56;7.67;;;5.70;;
15258;SDS011;34462;51.368;12.364;2023-02-28T12:47:29;8.17;;;6.37;;
15258;SDS011;34462;51.368;12.364;2023-02-28T12:49:59;8.13;;;6.10;;
15258;SDS011;34462;51.368;12.364;2023-02-28T12:52:35;7.43;;;6.30;;
15258;SDS011;34462;51.368;12.364;2023-02-28T12:55:15;7.63;;;6.13;;
15258;SDS011;34462;51.368;12.364;2023-02-28T12:57:55;9.13;;;7.00;;
15258;SDS011;34462;51.368;12.364;2023-02-28T13:00:36;7.70;;;6.90;;
15258;SDS011;34462;51.368;12.364;2023-02-28T13:06:35;7.83;;;6.03;;
15258;SDS011;34462;51.368;12.364;2023-02-28T13:09:23;10.43;;;6.67;;
15258;SDS011;34462;51.368;12.364;2023-02-28T13:11:52;8.70;;;6.97;;
15258;SDS011;34462;51.368;12.364;2023-02-28T13:14:24;8.97;;;6.43;;
15258;SDS011;34462;51.368;12.364;2023-02-28T13:16:57;7.33;;;6.63;;
15258;SDS011;34462;51.368;12.364;2023-02-28T13:19:38;8.07;;;6.30;;
15258;SDS011;34462;51.368;12.364;2023-02-28T13:22:20;8.17;;;6.60;;
15258;SDS011;34462;51.368;12.364;2023-02-28T13:35:14;6.93;;;6.10;;
15258;SDS011;34462;51.368;12.364;2023-02-28T13:38:21;8.13;;;6.23;;
15258;SDS011;34462;51.368;12.364;2023-02-28T13:44:12;7.33;;;6.10;;
15258;SDS011;34462;51.368;12.364;2023-02-28T13:50:18;6.73;;;6.03;;
15258;SDS011;34462;51.368;12.364;2023-02-28T13:53:19;7.93;;;6.20;;
15258;SDS011;34462;51.368;12.364;2023-02-28T13:56:27;8.00;;;6.20;;
15258;SDS011;34462;51.368;12.364;2023-02-28T13:59:19;8.10;;;6.00;;
15258;SDS011;34462;51.368;12.364;2023-02-28T14:02:02;8.37;;;5.93;;
15258;SDS011;34462;51.368;12.364;2023-02-28T14:05:02;8.37;;;6.17;;
15258;SDS011;34462;51.368;12.364;2023-02-28T14:07:46;6.83;;;6.13;;
15258;SDS011;34462;51.368;12.364;2023-02-28T14:10:25;8.20;;;6.07;;
15258;SDS011;34462;51.368;12.364;2023-02-28T14:13:00;7.40;;;6.07;;
15258;SDS011;34462;51.368;12.364;2023-02-28T14:15:39;6.67;;;5.90;;
15258;SDS011;34462;51.368;12.364;2023-02-28T14:18:16;7.33;;;6.07;;
15258;SDS011;34462;51.368;12.364;2023-02-28T14:20:54;7.10;;;6.40;;
15258;SDS011;34462;51.368;12.364;2023-02-28T14:23:49;7.97;;;5.80;;
15258;SDS011;34462;51.368;12.364;2023-02-28T14:26:53;7.87;;;5.97;;
15258;SDS011;34462;51.368;12.364;2023-02-28T14:33:32;8.43;;;6.40;;
15258;SDS011;34462;51.368;12.364;2023-02-28T14:36:16;8.13;;;6.40;;
15258;SDS011;34462;51.368;12.364;2023-02-28T14:38:50;8.77;;;6.57;;
15258;SDS011;34462;51.368;12.364;2023-02-28T14:41:23;8.70;;;6.60;;
15258;SDS011;34462;51.368;12.364;2023-02-28T14:43:59;8.20;;;6.50;;
15258;SDS011;34462;51.368;12.364;2023-02-28T14:46:30;10.30;;;7.37;;
15258;SDS011;34462;51.368;12.364;2023-02-28T14:49:06;8.17;;;6.77;;
15258;SDS011;34462;51.368;12.364;2023-02-28T14:51:43;9.20;;;6.67;;
15258;SDS011;34462;51.368;12.364;2023-02-28T14:54:13;8.63;;;6.07;;
15258;SDS011;34462;51.368;12.364;2023-02-28T14:56:50;10.37;;;7.50;;
15258;SDS011;34462;51.368;12.364;2023-02-28T14:59:27;7.73;;;6.30;;
15258;SDS011;34462;51.368;12.364;2023-02-28T15:02:17;9.17;;;7.00;;
15258;SDS011;34462;51.368;12.364;2023-02-28T15:04:52;8.73;;;6.30;;
15258;SDS011;34462;51.368;12.364;2023-02-28T15:07:25;7.93;;;6.37;;
15258;SDS011;34462;51.368;12.364;2023-02-28T15:10:10;8.43;;;6.53;;
15258;SDS011;34462;51.368;12.364;2023-02-28T15:12:46;8.50;;;7.10;;
15258;SDS011;34462;51.368;12.364;2023-02-28T15:15:23;8.50;;;7.10;;
15258;SDS011;34462;51.368;12.364;2023-02-28T15:18:27;7.60;;;6.80;;
15258;SDS011;34462;51.368;12.364;2023-02-28T15:21:10;7.43;;;6.63;;
15258;SDS011;34462;51.368;12.364;2023-02-28T15:23:45;7.33;;;6.50;;
15258;SDS011;34462;51.368;12.364;2023-02-28T15:26:19;9.13;;;6.73;;
15258;SDS011;34462;51.368;12.364;2023-02-28T15:28:54;8.97;;;6.97;;
15258;SDS011;34462;51.368;12.364;2023-02-28T15:31:31;6.80;;;6.10;;
15258;SDS011;34462;51.368;12.364;2023-02-28T15:34:22;8.77;;;7.03;;
15258;SDS011;34462;51.368;12.364;2023-02-28T15:40:11;8.23;;;6.43;;
15258;SDS011;34462;51.368;12.364;2023-02-28T15:42:57;7.53;;;6.43;;
15258;SDS011;34462;51.368;12.364;2023-02-28T15:45:33;7.17;;;6.23;;
15258;SDS011;34462;51.368;12.364;2023-02-28T15:48:13;8.33;;;7.07;;
15258;SDS011;34462;51.368;12.364;2023-02-28T15:50:50;7.63;;;6.70;;
15258;SDS011;34462;51.368;12.364;2023-02-28T15:53:22;9.53;;;6.63;;
15258;SDS011;34462;51.368;12.364;2023-02-28T15:55:54;10.43;;;6.77;;